Terminal Aerodrome Forecast
Issued by NWS

Home | Current Version | Previous Version | Text Only | Print | Product List | Glossary On
Versions: 1 2 3 4 5 6 7 8 9 10 11 12 13 14 15 16 17 18 19 20
000
FTUS43 KILX 212300
TAFCMI
TAF
KCMI 212327Z 2200/2224 13009KT P6SM BKN040
     FM220400 14013KT 6SM -FZRA BR SCT015 BKN030
     FM220800 18012KT 6SM -SHRA BR OVC015 WS020/23050KT
     FM221500 19015KT 6SM BR VCSH OVC015 WS020/23050KT=

USA.gov is the U.S. government's official web portal to all federal, state and local government web resources and services.